sensor_id;sensor_type;location;lat;lon;timestamp;P1;durP1;ratioP1;P2;durP2;ratioP2
10582;SDS011;33679;51.218;6.786;2023-04-03T00:02:29;4.97;;;3.80;;
10582;SDS011;33679;51.218;6.786;2023-04-03T00:05:05;8.63;;;3.13;;
10582;SDS011;33679;51.218;6.786;2023-04-03T00:07:39;5.17;;;3.57;;
10582;SDS011;33679;51.218;6.786;2023-04-03T00:10:11;7.77;;;3.70;;
10582;SDS011;33679;51.218;6.786;2023-04-03T00:12:47;5.63;;;3.80;;
10582;SDS011;33679;51.218;6.786;2023-04-03T00:15:20;6.37;;;4.57;;
10582;SDS011;33679;51.218;6.786;2023-04-03T00:17:53;4.43;;;3.50;;
10582;SDS011;33679;51.218;6.786;2023-04-03T00:20:25;13.07;;;4.00;;
10582;SDS011;33679;51.218;6.786;2023-04-03T00:22:58;5.83;;;3.80;;
10582;SDS011;33679;51.218;6.786;2023-04-03T00:25:31;5.57;;;3.97;;
10582;SDS011;33679;51.218;6.786;2023-04-03T00:28:05;8.80;;;4.27;;
10582;SDS011;33679;51.218;6.786;2023-04-03T00:30:40;8.60;;;3.70;;
10582;SDS011;33679;51.218;6.786;2023-04-03T00:33:13;7.27;;;3.70;;
10582;SDS011;33679;51.218;6.786;2023-04-03T00:35:45;4.70;;;3.43;;
10582;SDS011;33679;51.218;6.786;2023-04-03T00:38:55;6.27;;;3.50;;
10582;SDS011;33679;51.218;6.786;2023-04-03T00:41:30;4.00;;;3.40;;
10582;SDS011;33679;51.218;6.786;2023-04-03T00:47:03;4.47;;;3.37;;
10582;SDS011;33679;51.218;6.786;2023-04-03T00:49:38;7.03;;;3.67;;
10582;SDS011;33679;51.218;6.786;2023-04-03T00:52:16;6.67;;;3.70;;
10582;SDS011;33679;51.218;6.786;2023-04-03T00:54:57;4.20;;;2.90;;
10582;SDS011;33679;51.218;6.786;2023-04-03T00:57:33;4.13;;;3.43;;
10582;SDS011;33679;51.218;6.786;2023-04-03T01:00:09;6.37;;;3.47;;
10582;SDS011;33679;51.218;6.786;2023-04-03T01:02:51;4.37;;;3.33;;
10582;SDS011;33679;51.218;6.786;2023-04-03T01:05:30;6.90;;;3.43;;
10582;SDS011;33679;51.218;6.786;2023-04-03T01:08:09;5.73;;;3.90;;
10582;SDS011;33679;51.218;6.786;2023-04-03T01:10:45;4.77;;;3.00;;
10582;SDS011;33679;51.218;6.786;2023-04-03T01:13:19;4.63;;;3.43;;
10582;SDS011;33679;51.218;6.786;2023-04-03T01:16:00;6.33;;;3.17;;
10582;SDS011;33679;51.218;6.786;2023-04-03T01:18:35;5.93;;;3.63;;
10582;SDS011;33679;51.218;6.786;2023-04-03T01:21:14;8.30;;;4.40;;
10582;SDS011;33679;51.218;6.786;2023-04-03T01:24:20;4.23;;;3.30;;
10582;SDS011;33679;51.218;6.786;2023-04-03T01:27:06;5.43;;;3.70;;
10582;SDS011;33679;51.218;6.786;2023-04-03T01:29:44;4.50;;;3.70;;
10582;SDS011;33679;51.218;6.786;2023-04-03T01:32:19;6.10;;;3.87;;
10582;SDS011;33679;51.218;6.786;2023-04-03T01:34:51;11.67;;;5.87;;
10582;SDS011;33679;51.218;6.786;2023-04-03T01:37:29;7.67;;;4.10;;
10582;SDS011;33679;51.218;6.786;2023-04-03T01:40:01;9.87;;;4.77;;
10582;SDS011;33679;51.218;6.786;2023-04-03T01:42:38;8.37;;;3.57;;
10582;SDS011;33679;51.218;6.786;2023-04-03T01:45:13;6.87;;;3.87;;
10582;SDS011;33679;51.218;6.786;2023-04-03T01:47:50;4.70;;;3.20;;
10582;SDS011;33679;51.218;6.786;2023-04-03T01:50:23;4.10;;;2.90;;
10582;SDS011;33679;51.218;6.786;2023-04-03T01:53:00;4.17;;;2.83;;
10582;SDS011;33679;51.218;6.786;2023-04-03T01:55:33;3.87;;;2.70;;
10582;SDS011;33679;51.218;6.786;2023-04-03T01:58:08;3.47;;;2.90;;
10582;SDS011;33679;51.218;6.786;2023-04-03T02:00:40;5.37;;;3.23;;
10582;SDS011;33679;51.218;6.786;2023-04-03T02:03:18;3.67;;;2.53;;
10582;SDS011;33679;51.218;6.786;2023-04-03T02:05:51;3.77;;;2.53;;
10582;SDS011;33679;51.218;6.786;2023-04-03T02:08:41;4.77;;;2.73;;
10582;SDS011;33679;51.218;6.786;2023-04-03T02:11:14;4.23;;;2.60;;
10582;SDS011;33679;51.218;6.786;2023-04-03T02:13:47;11.30;;;3.10;;
10582;SDS011;33679;51.218;6.786;2023-04-03T02:16:20;4.20;;;3.10;;
10582;SDS011;33679;51.218;6.786;2023-04-03T02:18:54;5.40;;;3.63;;
10582;SDS011;33679;51.218;6.786;2023-04-03T02:21:29;6.47;;;3.47;;
10582;SDS011;33679;51.218;6.786;2023-04-03T02:24:03;4.30;;;3.10;;
10582;SDS011;33679;51.218;6.786;2023-04-03T02:26:40;7.40;;;3.37;;
10582;SDS011;33679;51.218;6.786;2023-04-03T02:29:15;4.10;;;3.30;;
10582;SDS011;33679;51.218;6.786;2023-04-03T02:31:47;9.63;;;3.20;;
10582;SDS011;33679;51.218;6.786;2023-04-03T02:56:36;7.90;;;3.40;;
10582;SDS011;33679;51.218;6.786;2023-04-03T02:59:09;5.73;;;3.40;;
10582;SDS011;33679;51.218;6.786;2023-04-03T03:01:46;3.33;;;2.83;;
10582;SDS011;33679;51.218;6.786;2023-04-03T03:04:20;4.73;;;3.03;;
10582;SDS011;33679;51.218;6.786;2023-04-03T03:06:56;4.53;;;3.37;;
10582;SDS011;33679;51.218;6.786;2023-04-03T03:09:29;5.07;;;3.33;;
10582;SDS011;33679;51.218;6.786;2023-04-03T03:12:04;3.87;;;2.97;;
10582;SDS011;33679;51.218;6.786;2023-04-03T03:14:40;6.13;;;4.23;;
10582;SDS011;33679;51.218;6.786;2023-04-03T03:20:22;5.30;;;3.03;;
10582;SDS011;33679;51.218;6.786;2023-04-03T03:23:00;2.97;;;2.70;;
10582;SDS011;33679;51.218;6.786;2023-04-03T03:25:33;5.60;;;3.57;;
10582;SDS011;33679;51.218;6.786;2023-04-03T03:28:23;7.13;;;3.30;;
10582;SDS011;33679;51.218;6.786;2023-04-03T03:30:56;6.07;;;3.03;;
10582;SDS011;33679;51.218;6.786;2023-04-03T03:33:33;3.63;;;2.73;;
10582;SDS011;33679;51.218;6.786;2023-04-03T03:36:06;4.13;;;3.50;;
10582;SDS011;33679;51.218;6.786;2023-04-03T03:38:44;4.03;;;3.63;;
10582;SDS011;33679;51.218;6.786;2023-04-03T03:41:17;4.93;;;2.80;;
10582;SDS011;33679;51.218;6.786;2023-04-03T03:43:54;4.93;;;2.90;;
10582;SDS011;33679;51.218;6.786;2023-04-03T03:46:32;5.83;;;3.47;;
10582;SDS011;33679;51.218;6.786;2023-04-03T03:49:08;4.00;;;3.20;;
10582;SDS011;33679;51.218;6.786;2023-04-03T03:51:43;6.93;;;3.40;;
10582;SDS011;33679;51.218;6.786;2023-04-03T03:54:45;4.20;;;3.00;;
10582;SDS011;33679;51.218;6.786;2023-04-03T03:57:21;4.63;;;3.43;;
10582;SDS011;33679;51.218;6.786;2023-04-03T04:00:01;5.80;;;3.67;;
10582;SDS011;33679;51.218;6.786;2023-04-03T04:02:36;5.10;;;3.30;;
10582;SDS011;33679;51.218;6.786;2023-04-03T04:05:21;3.83;;;2.43;;
10582;SDS011;33679;51.218;6.786;2023-04-03T04:07:54;7.57;;;3.30;;
10582;SDS011;33679;51.218;6.786;2023-04-03T04:10:30;6.00;;;2.70;;
10582;SDS011;33679;51.218;6.786;2023-04-03T04:13:06;6.90;;;3.87;;
10582;SDS011;33679;51.218;6.786;2023-04-03T04:15:42;5.03;;;2.77;;
10582;SDS011;33679;51.218;6.786;2023-04-03T04:18:14;4.43;;;2.93;;
10582;SDS011;33679;51.218;6.786;2023-04-03T04:20:50;3.77;;;2.60;;
10582;SDS011;33679;51.218;6.786;2023-04-03T04:23:23;3.30;;;2.50;;
10582;SDS011;33679;51.218;6.786;2023-04-03T04:25:56;4.57;;;3.17;;
10582;SDS011;33679;51.218;6.786;2023-04-03T04:28:33;3.93;;;2.70;;
10582;SDS011;33679;51.218;6.786;2023-04-03T04:31:14;5.70;;;2.90;;
10582;SDS011;33679;51.218;6.786;2023-04-03T04:34:15;3.80;;;2.53;;
10582;SDS011;33679;51.218;6.786;2023-04-03T04:36:48;4.97;;;3.00;;
10582;SDS011;33679;51.218;6.786;2023-04-03T04:39:21;6.17;;;2.80;;
10582;SDS011;33679;51.218;6.786;2023-04-03T04:41:53;4.00;;;2.70;;
10582;SDS011;33679;51.218;6.786;2023-04-03T04:44:27;7.40;;;3.00;;
10582;SDS011;33679;51.218;6.786;2023-04-03T04:47:05;3.57;;;2.63;;
10582;SDS011;33679;51.218;6.786;2023-04-03T04:49:42;3.40;;;2.70;;
10582;SDS011;33679;51.218;6.786;2023-04-03T04:52:21;2.83;;;2.40;;
10582;SDS011;33679;51.218;6.786;2023-04-03T04:54:54;3.63;;;2.53;;
10582;SDS011;33679;51.218;6.786;2023-04-03T04:57:27;3.43;;;2.90;;
10582;SDS011;33679;51.218;6.786;2023-04-03T05:00:04;4.70;;;2.67;;
10582;SDS011;33679;51.218;6.786;2023-04-03T05:02:47;4.93;;;2.93;;
10582;SDS011;33679;51.218;6.786;2023-04-03T05:05:25;5.13;;;2.87;;
10582;SDS011;33679;51.218;6.786;2023-04-03T05:08:01;4.30;;;2.80;;
10582;SDS011;33679;51.218;6.786;2023-04-03T05:10:36;3.77;;;2.57;;
10582;SDS011;33679;51.218;6.786;2023-04-03T05:13:13;3.40;;;2.23;;
10582;SDS011;33679;51.218;6.786;2023-04-03T05:15:48;4.27;;;2.30;;
10582;SDS011;33679;51.218;6.786;2023-04-03T05:18:22;3.97;;;2.37;;
10582;SDS011;33679;51.218;6.786;2023-04-03T05:21:00;4.30;;;2.03;;
10582;SDS011;33679;51.218;6.786;2023-04-03T05:23:35;6.10;;;2.80;;
10582;SDS011;33679;51.218;6.786;2023-04-03T05:26:08;5.33;;;3.60;;
10582;SDS011;33679;51.218;6.786;2023-04-03T05:28:42;8.10;;;3.60;;
10582;SDS011;33679;51.218;6.786;2023-04-03T05:31:16;4.70;;;2.63;;
10582;SDS011;33679;51.218;6.786;2023-04-03T05:33:51;6.13;;;2.97;;
10582;SDS011;33679;51.218;6.786;2023-04-03T05:36:25;3.50;;;2.00;;
10582;SDS011;33679;51.218;6.786;2023-04-03T05:39:05;3.43;;;2.50;;
10582;SDS011;33679;51.218;6.786;2023-04-03T05:41:42;4.20;;;2.47;;
10582;SDS011;33679;51.218;6.786;2023-04-03T05:44:15;3.53;;;2.10;;
10582;SDS011;33679;51.218;6.786;2023-04-03T05:47:00;3.80;;;2.43;;
10582;SDS011;33679;51.218;6.786;2023-04-03T05:49:43;3.00;;;2.10;;
10582;SDS011;33679;51.218;6.786;2023-04-03T05:52:21;2.97;;;2.17;;
10582;SDS011;33679;51.218;6.786;2023-04-03T05:54:58;7.40;;;2.63;;
10582;SDS011;33679;51.218;6.786;2023-04-03T05:57:33;6.13;;;3.40;;
10582;SDS011;33679;51.218;6.786;2023-04-03T06:00:11;4.60;;;2.60;;
10582;SDS011;33679;51.218;6.786;2023-04-03T06:02:56;5.73;;;2.10;;
10582;SDS011;33679;51.218;6.786;2023-04-03T06:05:31;5.40;;;2.50;;
10582;SDS011;33679;51.218;6.786;2023-04-03T06:08:10;8.57;;;2.60;;
10582;SDS011;33679;51.218;6.786;2023-04-03T06:10:48;3.23;;;2.00;;
10582;SDS011;33679;51.218;6.786;2023-04-03T06:13:25;2.33;;;1.87;;
10582;SDS011;33679;51.218;6.786;2023-04-03T06:15:57;4.90;;;2.10;;
10582;SDS011;33679;51.218;6.786;2023-04-03T06:18:30;4.37;;;2.07;;
10582;SDS011;33679;51.218;6.786;2023-04-03T06:21:04;4.50;;;2.20;;
10582;SDS011;33679;51.218;6.786;2023-04-03T06:23:43;3.90;;;2.60;;
10582;SDS011;33679;51.218;6.786;2023-04-03T06:26:19;3.70;;;2.20;;
10582;SDS011;33679;51.218;6.786;2023-04-03T06:29:00;5.43;;;2.63;;
10582;SDS011;33679;51.218;6.786;2023-04-03T06:31:33;5.33;;;2.63;;
10582;SDS011;33679;51.218;6.786;2023-04-03T06:34:16;9.37;;;2.47;;
10582;SDS011;33679;51.218;6.786;2023-04-03T06:36:51;6.27;;;2.33;;
10582;SDS011;33679;51.218;6.786;2023-04-03T06:39:40;4.50;;;1.97;;
10582;SDS011;33679;51.218;6.786;2023-04-03T06:42:15;4.07;;;2.13;;
10582;SDS011;33679;51.218;6.786;2023-04-03T06:45:06;4.00;;;2.00;;
10582;SDS011;33679;51.218;6.786;2023-04-03T06:47:42;6.80;;;2.33;;
10582;SDS011;33679;51.218;6.786;2023-04-03T06:50:25;5.03;;;2.27;;
10582;SDS011;33679;51.218;6.786;2023-04-03T06:53:06;2.63;;;2.00;;
10582;SDS011;33679;51.218;6.786;2023-04-03T06:55:40;4.60;;;2.00;;
10582;SDS011;33679;51.218;6.786;2023-04-03T06:58:25;3.97;;;2.30;;
10582;SDS011;33679;51.218;6.786;2023-04-03T07:00:58;3.67;;;1.97;;
10582;SDS011;33679;51.218;6.786;2023-04-03T07:03:34;6.10;;;2.40;;
10582;SDS011;33679;51.218;6.786;2023-04-03T07:06:11;5.57;;;2.13;;
10582;SDS011;33679;51.218;6.786;2023-04-03T07:08:49;8.13;;;2.13;;
10582;SDS011;33679;51.218;6.786;2023-04-03T07:11:28;5.90;;;1.70;;
10582;SDS011;33679;51.218;6.786;2023-04-03T07:14:03;9.90;;;2.00;;
10582;SDS011;33679;51.218;6.786;2023-04-03T07:16:36;9.60;;;3.17;;
10582;SDS011;33679;51.218;6.786;2023-04-03T07:19:09;5.23;;;2.40;;
10582;SDS011;33679;51.218;6.786;2023-04-03T07:21:55;5.40;;;2.23;;
10582;SDS011;33679;51.218;6.786;2023-04-03T07:24:32;4.10;;;2.10;;
10582;SDS011;33679;51.218;6.786;2023-04-03T07:27:22;3.03;;;1.80;;
10582;SDS011;33679;51.218;6.786;2023-04-03T07:29:58;5.47;;;1.70;;
10582;SDS011;33679;51.218;6.786;2023-04-03T07:32:31;2.17;;;1.87;;
10582;SDS011;33679;51.218;6.786;2023-04-03T07:35:05;6.00;;;2.20;;
10582;SDS011;33679;51.218;6.786;2023-04-03T07:37:39;4.70;;;3.00;;
10582;SDS011;33679;51.218;6.786;2023-04-03T07:40:21;6.30;;;2.13;;
10582;SDS011;33679;51.218;6.786;2023-04-03T07:42:55;4.13;;;1.80;;
10582;SDS011;33679;51.218;6.786;2023-04-03T07:45:28;6.13;;;2.93;;
10582;SDS011;33679;51.218;6.786;2023-04-03T07:48:02;4.80;;;1.50;;
10582;SDS011;33679;51.218;6.786;2023-04-03T07:50:44;2.67;;;1.70;;
10582;SDS011;33679;51.218;6.786;2023-04-03T07:53:22;4.73;;;1.80;;
10582;SDS011;33679;51.218;6.786;2023-04-03T07:55:57;2.93;;;2.03;;
10582;SDS011;33679;51.218;6.786;2023-04-03T07:58:30;2.40;;;1.47;;
10582;SDS011;33679;51.218;6.786;2023-04-03T08:01:06;3.07;;;1.80;;
10582;SDS011;33679;51.218;6.786;2023-04-03T08:03:40;3.60;;;2.17;;
10582;SDS011;33679;51.218;6.786;2023-04-03T08:06:23;7.20;;;2.20;;
10582;SDS011;33679;51.218;6.786;2023-04-03T08:09:02;12.00;;;3.40;;
10582;SDS011;33679;51.218;6.786;2023-04-03T08:11:49;15.60;;;5.90;;
10582;SDS011;33679;51.218;6.786;2023-04-03T08:14:24;8.07;;;4.07;;
10582;SDS011;33679;51.218;6.786;2023-04-03T08:16:57;8.20;;;4.00;;
10582;SDS011;33679;51.218;6.786;2023-04-03T08:19:31;7.20;;;3.43;;
10582;SDS011;33679;51.218;6.786;2023-04-03T08:22:06;8.07;;;3.50;;
10582;SDS011;33679;51.218;6.786;2023-04-03T08:24:41;3.70;;;2.60;;
10582;SDS011;33679;51.218;6.786;2023-04-03T08:27:24;5.03;;;2.90;;
10582;SDS011;33679;51.218;6.786;2023-04-03T08:29:58;3.53;;;2.50;;
10582;SDS011;33679;51.218;6.786;2023-04-03T08:32:33;3.40;;;1.50;;
10582;SDS011;33679;51.218;6.786;2023-04-03T08:35:22;2.43;;;1.57;;
10582;SDS011;33679;51.218;6.786;2023-04-03T08:38:00;5.67;;;1.50;;
10582;SDS011;33679;51.218;6.786;2023-04-03T08:40:37;2.20;;;1.43;;
10582;SDS011;33679;51.218;6.786;2023-04-03T08:43:17;3.10;;;1.53;;
10582;SDS011;33679;51.218;6.786;2023-04-03T08:46:02;2.90;;;1.63;;
10582;SDS011;33679;51.218;6.786;2023-04-03T08:48:40;1.50;;;1.40;;
10582;SDS011;33679;51.218;6.786;2023-04-03T08:51:17;3.63;;;1.30;;
10582;SDS011;33679;51.218;6.786;2023-04-03T08:53:54;1.53;;;1.43;;
10582;SDS011;33679;51.218;6.786;2023-04-03T08:56:31;3.27;;;1.40;;
10582;SDS011;33679;51.218;6.786;2023-04-03T08:59:18;1.30;;;1.20;;
10582;SDS011;33679;51.218;6.786;2023-04-03T09:01:58;1.67;;;1.57;;
10582;SDS011;33679;51.218;6.786;2023-04-03T09:04:37;2.03;;;1.40;;
10582;SDS011;33679;51.218;6.786;2023-04-03T09:07:13;3.00;;;1.60;;
10582;SDS011;33679;51.218;6.786;2023-04-03T09:10:15;1.87;;;1.10;;
10582;SDS011;33679;51.218;6.786;2023-04-03T09:12:55;2.53;;;1.40;;
10582;SDS011;33679;51.218;6.786;2023-04-03T09:15:34;4.33;;;1.43;;
10582;SDS011;33679;51.218;6.786;2023-04-03T09:18:11;1.83;;;1.30;;
10582;SDS011;33679;51.218;6.786;2023-04-03T09:20:49;2.13;;;1.33;;
10582;SDS011;33679;51.218;6.786;2023-04-03T09:23:39;2.17;;;1.40;;
10582;SDS011;33679;51.218;6.786;2023-04-03T09:26:26;2.33;;;1.07;;
10582;SDS011;33679;51.218;6.786;2023-04-03T09:29:05;1.63;;;1.20;;
10582;SDS011;33679;51.218;6.786;2023-04-03T09:31:52;1.50;;;1.20;;
10582;SDS011;33679;51.218;6.786;2023-04-03T09:34:30;1.70;;;1.20;;
10582;SDS011;33679;51.218;6.786;2023-04-03T09:37:10;4.93;;;1.73;;
10582;SDS011;33679;51.218;6.786;2023-04-03T09:43:22;2.90;;;1.50;;
10582;SDS011;33679;51.218;6.786;2023-04-03T09:49:03;2.80;;;1.50;;
10582;SDS011;33679;51.218;6.786;2023-04-03T09:51:37;3.63;;;1.50;;
10582;SDS011;33679;51.218;6.786;2023-04-03T09:54:26;2.63;;;1.40;;
10582;SDS011;33679;51.218;6.786;2023-04-03T09:57:10;4.40;;;1.70;;
10582;SDS011;33679;51.218;6.786;2023-04-03T09:59:46;4.90;;;1.57;;
10582;SDS011;33679;51.218;6.786;2023-04-03T10:02:41;2.30;;;1.33;;
10582;SDS011;33679;51.218;6.786;2023-04-03T10:05:37;2.73;;;1.60;;
10582;SDS011;33679;51.218;6.786;2023-04-03T10:08:30;4.20;;;1.80;;
10582;SDS011;33679;51.218;6.786;2023-04-03T10:13:59;3.73;;;1.70;;
10582;SDS011;33679;51.218;6.786;2023-04-03T10:16:41;2.47;;;1.50;;
10582;SDS011;33679;51.218;6.786;2023-04-03T10:19:29;3.17;;;1.47;;
10582;SDS011;33679;51.218;6.786;2023-04-03T10:25:52;3.97;;;1.60;;
10582;SDS011;33679;51.218;6.786;2023-04-03T10:28:45;1.70;;;1.40;;
10582;SDS011;33679;51.218;6.786;2023-04-03T10:31:40;2.30;;;1.50;;
10582;SDS011;33679;51.218;6.786;2023-04-03T10:34:35;3.33;;;1.60;;
10582;SDS011;33679;51.218;6.786;2023-04-03T10:37:18;2.00;;;1.57;;
10582;SDS011;33679;51.218;6.786;2023-04-03T10:43:08;1.60;;;1.20;;
10582;SDS011;33679;51.218;6.786;2023-04-03T10:45:53;2.17;;;1.40;;
10582;SDS011;33679;51.218;6.786;2023-04-03T10:48:45;2.57;;;1.67;;
10582;SDS011;33679;51.218;6.786;2023-04-03T10:51:33;2.60;;;1.60;;
10582;SDS011;33679;51.218;6.786;2023-04-03T10:54:25;3.20;;;1.70;;
10582;SDS011;33679;51.218;6.786;2023-04-03T10:57:08;3.40;;;1.77;;
10582;SDS011;33679;51.218;6.786;2023-04-03T10:59:45;2.57;;;1.33;;
10582;SDS011;33679;51.218;6.786;2023-04-03T11:02:31;2.83;;;1.17;;
10582;SDS011;33679;51.218;6.786;2023-04-03T11:05:14;2.60;;;1.40;;
10582;SDS011;33679;51.218;6.786;2023-04-03T11:07:59;5.70;;;1.73;;
10582;SDS011;33679;51.218;6.786;2023-04-03T11:10:45;3.90;;;1.57;;
10582;SDS011;33679;51.218;6.786;2023-04-03T11:13:31;3.23;;;1.40;;
10582;SDS011;33679;51.218;6.786;2023-04-03T11:16:14;3.63;;;1.40;;
10582;SDS011;33679;51.218;6.786;2023-04-03T11:19:03;1.50;;;1.33;;
10582;SDS011;33679;51.218;6.786;2023-04-03T11:21:56;1.60;;;1.20;;
10582;SDS011;33679;51.218;6.786;2023-04-03T11:24:46;5.40;;;1.37;;
10582;SDS011;33679;51.218;6.786;2023-04-03T11:27:45;1.93;;;1.20;;
10582;SDS011;33679;51.218;6.786;2023-04-03T11:30:32;1.90;;;1.00;;
10582;SDS011;33679;51.218;6.786;2023-04-03T11:36:21;2.50;;;1.37;;
10582;SDS011;33679;51.218;6.786;2023-04-03T11:39:01;3.37;;;1.43;;
10582;SDS011;33679;51.218;6.786;2023-04-03T11:41:46;2.53;;;0.97;;
10582;SDS011;33679;51.218;6.786;2023-04-03T11:44:29;1.57;;;0.90;;
10582;SDS011;33679;51.218;6.786;2023-04-03T11:47:05;1.50;;;1.00;;
10582;SDS011;33679;51.218;6.786;2023-04-03T11:50:00;1.83;;;1.00;;
10582;SDS011;33679;51.218;6.786;2023-04-03T11:55:42;2.90;;;1.30;;
10582;SDS011;33679;51.218;6.786;2023-04-03T12:01:48;2.60;;;1.30;;
10582;SDS011;33679;51.218;6.786;2023-04-03T12:04:23;1.57;;;1.20;;
10582;SDS011;33679;51.218;6.786;2023-04-03T12:09:56;2.37;;;1.23;;
10582;SDS011;33679;51.218;6.786;2023-04-03T12:12:46;2.33;;;1.00;;
10582;SDS011;33679;51.218;6.786;2023-04-03T12:16:18;1.43;;;1.13;;
10582;SDS011;33679;51.218;6.786;2023-04-03T12:19:03;1.60;;;1.20;;
10582;SDS011;33679;51.218;6.786;2023-04-03T12:22:15;4.90;;;1.40;;
10582;SDS011;33679;51.218;6.786;2023-04-03T12:24:51;1.20;;;0.97;;
10582;SDS011;33679;51.218;6.786;2023-04-03T12:27:26;2.00;;;1.77;;
10582;SDS011;33679;51.218;6.786;2023-04-03T12:30:05;2.80;;;1.50;;
10582;SDS011;33679;51.218;6.786;2023-04-03T12:33:04;5.57;;;1.40;;
10582;SDS011;33679;51.218;6.786;2023-04-03T12:36:09;3.63;;;1.50;;
10582;SDS011;33679;51.218;6.786;2023-04-03T12:39:00;2.80;;;1.20;;
10582;SDS011;33679;51.218;6.786;2023-04-03T12:41:55;2.50;;;1.30;;
10582;SDS011;33679;51.218;6.786;2023-04-03T12:44:40;2.03;;;1.00;;
10582;SDS011;33679;51.218;6.786;2023-04-03T12:47:23;3.30;;;1.73;;
10582;SDS011;33679;51.218;6.786;2023-04-03T12:50:00;1.40;;;1.00;;
10582;SDS011;33679;51.218;6.786;2023-04-03T12:52:37;1.70;;;1.20;;
10582;SDS011;33679;51.218;6.786;2023-04-03T12:55:15;1.73;;;1.03;;
10582;SDS011;33679;51.218;6.786;2023-04-03T12:57:49;2.07;;;1.30;;
10582;SDS011;33679;51.218;6.786;2023-04-03T13:00:27;4.43;;;1.57;;
10582;SDS011;33679;51.218;6.786;2023-04-03T13:03:03;1.83;;;1.30;;
10582;SDS011;33679;51.218;6.786;2023-04-03T13:05:38;2.03;;;1.20;;
10582;SDS011;33679;51.218;6.786;2023-04-03T13:08:12;3.07;;;1.43;;
10582;SDS011;33679;51.218;6.786;2023-04-03T13:10:51;1.33;;;1.17;;
10582;SDS011;33679;51.218;6.786;2023-04-03T13:13:27;2.30;;;1.53;;
10582;SDS011;33679;51.218;6.786;2023-04-03T13:16:07;1.77;;;1.10;;
10582;SDS011;33679;51.218;6.786;2023-04-03T13:18:41;4.40;;;1.70;;
10582;SDS011;33679;51.218;6.786;2023-04-03T13:21:25;3.80;;;1.83;;
10582;SDS011;33679;51.218;6.786;2023-04-03T13:24:09;3.07;;;1.40;;
10582;SDS011;33679;51.218;6.786;2023-04-03T13:26:47;1.93;;;1.20;;
10582;SDS011;33679;51.218;6.786;2023-04-03T13:29:21;2.90;;;1.10;;
10582;SDS011;33679;51.218;6.786;2023-04-03T13:31:56;1.60;;;1.30;;
10582;SDS011;33679;51.218;6.786;2023-04-03T13:34:35;2.43;;;1.50;;
10582;SDS011;33679;51.218;6.786;2023-04-03T13:37:13;3.70;;;1.20;;
10582;SDS011;33679;51.218;6.786;2023-04-03T13:39:56;5.67;;;1.50;;
10582;SDS011;33679;51.218;6.786;2023-04-03T13:42:33;2.80;;;1.50;;
10582;SDS011;33679;51.218;6.786;2023-04-03T13:45:11;3.20;;;1.63;;
10582;SDS011;33679;51.218;6.786;2023-04-03T13:47:51;2.73;;;1.40;;
10582;SDS011;33679;51.218;6.786;2023-04-03T13:50:27;6.00;;;1.60;;
10582;SDS011;33679;51.218;6.786;2023-04-03T13:53:02;2.40;;;1.30;;
10582;SDS011;33679;51.218;6.786;2023-04-03T13:55:53;4.50;;;1.53;;
10582;SDS011;33679;51.218;6.786;2023-04-03T13:58:30;2.63;;;1.90;;
10582;SDS011;33679;51.218;6.786;2023-04-03T14:01:09;6.20;;;2.80;;
10582;SDS011;33679;51.218;6.786;2023-04-03T14:03:44;2.70;;;1.73;;
10582;SDS011;33679;51.218;6.786;2023-04-03T14:06:18;3.27;;;2.00;;
10582;SDS011;33679;51.218;6.786;2023-04-03T14:08:51;2.97;;;1.90;;
10582;SDS011;33679;51.218;6.786;2023-04-03T14:11:24;3.07;;;1.37;;
10582;SDS011;33679;51.218;6.786;2023-04-03T14:14:05;2.13;;;1.33;;
10582;SDS011;33679;51.218;6.786;2023-04-03T14:16:42;3.73;;;1.23;;
10582;SDS011;33679;51.218;6.786;2023-04-03T14:19:20;2.80;;;1.60;;
10582;SDS011;33679;51.218;6.786;2023-04-03T14:21:54;4.30;;;1.40;;
10582;SDS011;33679;51.218;6.786;2023-04-03T14:24:28;4.00;;;1.43;;
10582;SDS011;33679;51.218;6.786;2023-04-03T14:27:05;3.83;;;1.50;;
10582;SDS011;33679;51.218;6.786;2023-04-03T14:29:49;2.83;;;1.37;;
10582;SDS011;33679;51.218;6.786;2023-04-03T14:32:24;2.10;;;1.27;;
10582;SDS011;33679;51.218;6.786;2023-04-03T14:35:04;3.67;;;1.83;;
10582;SDS011;33679;51.218;6.786;2023-04-03T14:37:38;6.17;;;1.80;;
10582;SDS011;33679;51.218;6.786;2023-04-03T14:40:13;3.50;;;1.83;;
10582;SDS011;33679;51.218;6.786;2023-04-03T14:42:48;4.13;;;1.73;;
10582;SDS011;33679;51.218;6.786;2023-04-03T14:45:23;7.00;;;1.60;;
10582;SDS011;33679;51.218;6.786;2023-04-03T14:47:58;2.13;;;1.40;;
10582;SDS011;33679;51.218;6.786;2023-04-03T14:50:31;2.47;;;1.53;;
10582;SDS011;33679;51.218;6.786;2023-04-03T14:53:04;1.57;;;1.47;;
10582;SDS011;33679;51.218;6.786;2023-04-03T14:55:38;4.03;;;1.53;;
10582;SDS011;33679;51.218;6.786;2023-04-03T14:58:20;1.87;;;1.20;;
10582;SDS011;33679;51.218;6.786;2023-04-03T15:00:55;3.33;;;1.70;;
10582;SDS011;33679;51.218;6.786;2023-04-03T15:03:28;4.40;;;1.60;;
10582;SDS011;33679;51.218;6.786;2023-04-03T15:06:01;3.60;;;1.37;;
10582;SDS011;33679;51.218;6.786;2023-04-03T15:08:34;2.13;;;1.20;;
10582;SDS011;33679;51.218;6.786;2023-04-03T15:11:08;2.03;;;1.57;;
10582;SDS011;33679;51.218;6.786;2023-04-03T15:13:41;2.40;;;1.40;;
10582;SDS011;33679;51.218;6.786;2023-04-03T15:16:17;3.47;;;1.63;;
10582;SDS011;33679;51.218;6.786;2023-04-03T15:18:56;4.03;;;1.20;;
10582;SDS011;33679;51.218;6.786;2023-04-03T15:21:30;2.87;;;1.20;;
10582;SDS011;33679;51.218;6.786;2023-04-03T15:24:03;4.30;;;1.57;;
10582;SDS011;33679;51.218;6.786;2023-04-03T15:26:36;2.80;;;1.30;;
10582;SDS011;33679;51.218;6.786;2023-04-03T15:29:09;4.60;;;1.50;;
10582;SDS011;33679;51.218;6.786;2023-04-03T15:31:43;4.80;;;1.33;;
10582;SDS011;33679;51.218;6.786;2023-04-03T15:34:15;1.30;;;1.20;;
10582;SDS011;33679;51.218;6.786;2023-04-03T15:36:50;3.40;;;1.63;;
10582;SDS011;33679;51.218;6.786;2023-04-03T15:39:22;3.30;;;1.30;;
10582;SDS011;33679;51.218;6.786;2023-04-03T15:41:56;1.87;;;1.23;;
10582;SDS011;33679;51.218;6.786;2023-04-03T15:44:39;4.30;;;1.70;;
10582;SDS011;33679;51.218;6.786;2023-04-03T15:47:14;2.40;;;1.40;;
10582;SDS011;33679;51.218;6.786;2023-04-03T15:49:49;2.23;;;1.37;;
10582;SDS011;33679;51.218;6.786;2023-04-03T15:52:22;5.07;;;1.23;;
10582;SDS011;33679;51.218;6.786;2023-04-03T15:54:54;2.60;;;1.37;;
10582;SDS011;33679;51.218;6.786;2023-04-03T15:57:34;5.90;;;2.43;;
10582;SDS011;33679;51.218;6.786;2023-04-03T16:00:08;4.27;;;2.17;;
10582;SDS011;33679;51.218;6.786;2023-04-03T16:02:46;5.47;;;3.33;;
10582;SDS011;33679;51.218;6.786;2023-04-03T16:05:20;3.27;;;1.40;;
10582;SDS011;33679;51.218;6.786;2023-04-03T16:07:56;3.67;;;1.40;;
10582;SDS011;33679;51.218;6.786;2023-04-03T16:10:46;2.70;;;2.13;;
10582;SDS011;33679;51.218;6.786;2023-04-03T16:13:24;2.37;;;1.47;;
10582;SDS011;33679;51.218;6.786;2023-04-03T16:23:23;3.17;;;1.80;;
10582;SDS011;33679;51.218;6.786;2023-04-03T16:25:57;3.73;;;1.83;;
10582;SDS011;33679;51.218;6.786;2023-04-03T16:28:30;2.30;;;1.30;;
10582;SDS011;33679;51.218;6.786;2023-04-03T16:31:02;2.50;;;1.50;;
10582;SDS011;33679;51.218;6.786;2023-04-03T16:33:39;4.60;;;1.73;;
10582;SDS011;33679;51.218;6.786;2023-04-03T16:36:13;1.63;;;1.43;;
10582;SDS011;33679;51.218;6.786;2023-04-03T16:38:48;3.77;;;2.00;;
10582;SDS011;33679;51.218;6.786;2023-04-03T16:41:22;3.27;;;1.43;;
10582;SDS011;33679;51.218;6.786;2023-04-03T16:43:55;4.73;;;1.90;;
10582;SDS011;33679;51.218;6.786;2023-04-03T16:46:28;3.00;;;1.57;;
10582;SDS011;33679;51.218;6.786;2023-04-03T16:49:03;4.20;;;1.60;;
10582;SDS011;33679;51.218;6.786;2023-04-03T16:51:39;2.60;;;1.43;;
10582;SDS011;33679;51.218;6.786;2023-04-03T16:54:16;4.40;;;1.70;;
10582;SDS011;33679;51.218;6.786;2023-04-03T16:56:49;3.63;;;2.13;;
10582;SDS011;33679;51.218;6.786;2023-04-03T16:59:23;3.80;;;2.30;;
10582;SDS011;33679;51.218;6.786;2023-04-03T17:01:58;4.53;;;1.70;;